Time;durP1;ratioP1;P1;durP2;ratioP2;P2;SDS_P1;SDS_P2;PMS_P1;PMS_P2;Temp;Humidity;BMP_temperature;BMP_pressure;BME280_temperature;BME280_humidity;BME280_pressure;Samples;Min_cycle;Max_cycle;Signal;HPM_P1;HPM_P2
2022/04/27 00:00:31;;;;;;;10.93;2.58;;;;;;;;;;4220606;33;20589;-62
2022/04/27 00:34:00;;;;;;;9.77;3.30;;;;;;;;;;4367989;28;20179;-60
2022/04/27 00:36:27;;;;;;;8.75;2.55;;;;;;;;;;4205406;34;20086;-61
2022/04/27 00:38:53;;;;;;;11.07;2.95;;;;;;;;;;4205114;34;20777;-60
2022/04/27 00:41:19;;;;;;;9.60;4.15;;;;;;;;;;4205486;34;20134;-59
2022/04/27 00:43:45;;;;;;;8.95;3.30;;;;;;;;;;4215621;34;20210;-61
2022/04/27 00:46:11;;;;;;;11.00;2.87;;;;;;;;;;4205566;34;20105;-60
2022/04/27 00:48:42;;;;;;;9.30;2.58;;;;;;;;;;4204717;34;20101;-60
2022/04/27 00:51:14;;;;;;;7.95;2.80;;;;;;;;;;4193123;34;20118;-60
2022/04/27 00:53:43;;;;;;;8.48;2.90;;;;;;;;;;4192403;34;20105;-62
2022/04/27 00:56:10;;;;;;;13.95;2.97;;;;;;;;;;4205596;34;20098;-62
2022/04/27 00:58:36;;;;;;;11.07;3.40;;;;;;;;;;4205663;34;20124;-62
2022/04/27 01:01:02;;;;;;;11.73;3.20;;;;;;;;;;4205632;34;20450;-62
2022/04/27 01:03:28;;;;;;;10.48;3.05;;;;;;;;;;4205264;34;20145;-62
2022/04/27 01:05:55;;;;;;;13.55;3.00;;;;;;;;;;4205241;34;20105;-62
2022/04/27 01:08:21;;;;;;;10.50;3.00;;;;;;;;;;4205307;34;20196;-62
2022/04/27 01:10:48;;;;;;;10.75;2.87;;;;;;;;;;4205233;34;20543;-62
2022/04/27 01:13:14;;;;;;;11.32;3.37;;;;;;;;;;4205575;34;20137;-59
2022/04/27 01:15:40;;;;;;;8.82;2.85;;;;;;;;;;4192503;34;20113;-60
2022/04/27 01:18:08;;;;;;;13.10;2.78;;;;;;;;;;4203838;34;20149;-59
2022/04/27 01:20:39;;;;;;;10.18;2.85;;;;;;;;;;4191972;34;20118;-59
2022/04/27 01:23:06;;;;;;;12.82;3.17;;;;;;;;;;4205149;34;20142;-59
2022/04/27 01:25:54;;;;;;;12.60;4.32;;;;;;;;;;4192530;34;20189;-60
2022/04/27 01:28:25;;;;;;;9.32;3.40;;;;;;;;;;4205186;34;20782;-60
2022/04/27 01:31:02;;;;;;;11.90;3.92;;;;;;;;;;4192449;34;20109;-59
2022/04/27 01:33:34;;;;;;;9.30;3.42;;;;;;;;;;4215279;34;20114;-59
2022/04/27 01:36:04;;;;;;;18.62;3.42;;;;;;;;;;4204867;34;20176;-59
2022/04/27 01:38:49;;;;;;;9.88;2.92;;;;;;;;;;4204888;34;20513;-59
2022/04/27 01:41:15;;;;;;;15.30;3.15;;;;;;;;;;4205042;34;20545;-59
2022/04/27 01:43:41;;;;;;;11.27;4.37;;;;;;;;;;4205129;34;20153;-59
2022/04/27 01:46:07;;;;;;;10.73;3.10;;;;;;;;;;4205230;34;20211;-59
2022/04/27 01:48:34;;;;;;;11.30;2.97;;;;;;;;;;4205011;34;20551;-60
2022/04/27 01:51:00;;;;;;;9.65;3.45;;;;;;;;;;4214734;34;20545;-59
2022/04/27 01:56:10;;;;;;;14.95;3.55;;;;;;;;;;4204738;34;20209;-59
2022/04/27 01:58:36;;;;;;;9.32;2.50;;;;;;;;;;4204918;34;20137;-59
2022/04/27 02:01:02;;;;;;;12.70;2.75;;;;;;;;;;4204576;34;20093;-62
2022/04/27 02:03:28;;;;;;;7.15;2.80;;;;;;;;;;4204782;34;20526;-62
2022/04/27 02:05:55;;;;;;;7.90;2.83;;;;;;;;;;4204638;34;20121;-62
2022/04/27 02:08:21;;;;;;;12.45;2.97;;;;;;;;;;4204725;34;20093;-62
2022/04/27 02:10:47;;;;;;;8.57;2.65;;;;;;;;;;4204652;34;20566;-62
2022/04/27 02:13:13;;;;;;;7.45;2.92;;;;;;;;;;4204770;34;20137;-62
2022/04/27 02:15:39;;;;;;;16.27;3.30;;;;;;;;;;4204599;34;20109;-62
2022/04/27 02:18:06;;;;;;;11.30;3.40;;;;;;;;;;4204744;34;20098;-62
2022/04/27 02:20:32;;;;;;;10.52;3.10;;;;;;;;;;4204591;34;20109;-62
2022/04/27 02:22:58;;;;;;;8.75;3.33;;;;;;;;;;4204614;34;20118;-62
2022/04/27 02:25:24;;;;;;;10.30;3.65;;;;;;;;;;4191654;34;20114;-62
2022/04/27 02:27:50;;;;;;;15.30;3.20;;;;;;;;;;4204886;34;20197;-62
2022/04/27 02:30:18;;;;;;;11.57;3.78;;;;;;;;;;4204463;34;20117;-62
2022/04/27 02:32:48;;;;;;;13.20;3.00;;;;;;;;;;4204527;34;20831;-62
2022/04/27 02:35:14;;;;;;;14.87;3.42;;;;;;;;;;4204469;34;20490;-62
2022/04/27 02:37:40;;;;;;;15.10;4.70;;;;;;;;;;4204593;34;20513;-62
2022/04/27 02:40:10;;;;;;;8.35;3.58;;;;;;;;;;4214384;34;20094;-62
2022/04/27 02:42:36;;;;;;;9.93;3.35;;;;;;;;;;4204418;34;20114;-62
2022/04/27 02:45:03;;;;;;;10.90;4.65;;;;;;;;;;4204513;34;20100;-62
2022/04/27 02:47:29;;;;;;;8.25;3.50;;;;;;;;;;4204476;34;20113;-62
2022/04/27 02:52:39;;;;;;;8.63;3.30;;;;;;;;;;4204443;34;20110;-62
2022/04/27 02:55:05;;;;;;;10.45;3.72;;;;;;;;;;4204396;34;20197;-62
2022/04/27 02:57:31;;;;;;;13.13;3.30;;;;;;;;;;4214442;34;20585;-62
2022/04/27 02:59:57;;;;;;;12.82;3.15;;;;;;;;;;4214578;34;20105;-62
2022/04/27 03:02:23;;;;;;;10.23;3.08;;;;;;;;;;4204525;34;20141;-62
2022/04/27 03:04:49;;;;;;;13.65;3.42;;;;;;;;;;4204200;34;20600;-62
2022/04/27 03:07:15;;;;;;;12.15;3.28;;;;;;;;;;4204207;34;20625;-61
2022/04/27 03:09:41;;;;;;;12.88;3.50;;;;;;;;;;4204130;34;20196;-62
2022/04/27 03:12:07;;;;;;;6.15;2.85;;;;;;;;;;4204415;34;20136;-62
2022/04/27 03:14:33;;;;;;;11.98;4.28;;;;;;;;;;4206081;34;20189;-62
2022/04/27 03:16:59;;;;;;;13.20;4.60;;;;;;;;;;4216626;34;20196;-62
2022/04/27 03:19:25;;;;;;;11.23;3.62;;;;;;;;;;4216237;34;20114;-62
2022/04/27 03:21:51;;;;;;;6.18;2.78;;;;;;;;;;4206117;34;20552;-62
2022/04/27 03:24:17;;;;;;;11.73;3.50;;;;;;;;;;4206027;34;20102;-62
2022/04/27 03:26:43;;;;;;;9.95;3.35;;;;;;;;;;4206154;34;20125;-62
2022/04/27 03:29:09;;;;;;;17.58;3.53;;;;;;;;;;4205950;34;20192;-63
2022/04/27 03:31:35;;;;;;;11.80;4.47;;;;;;;;;;4206189;34;20179;-62
2022/04/27 03:34:01;;;;;;;13.00;3.60;;;;;;;;;;4205837;34;20132;-62
2022/04/27 03:36:27;;;;;;;17.77;4.07;;;;;;;;;;4205927;34;20455;-62
2022/04/27 03:38:53;;;;;;;16.40;4.50;;;;;;;;;;4206057;34;20114;-63
2022/04/27 03:41:20;;;;;;;14.32;4.47;;;;;;;;;;4206019;34;20477;-64
2022/04/27 03:43:47;;;;;;;10.60;3.08;;;;;;;;;;4205895;34;20125;-63
2022/04/27 03:46:13;;;;;;;12.52;3.75;;;;;;;;;;4205773;34;20149;-63
2022/04/27 03:48:40;;;;;;;16.70;3.75;;;;;;;;;;4206107;34;20451;-63
2022/04/27 03:51:06;;;;;;;10.30;4.10;;;;;;;;;;4206076;34;20114;-63
2022/04/27 03:53:32;;;;;;;14.60;3.80;;;;;;;;;;4205939;34;20214;-61
2022/04/27 03:55:58;;;;;;;10.90;3.72;;;;;;;;;;4215994;34;20125;-60
2022/04/27 03:58:24;;;;;;;12.80;3.28;;;;;;;;;;4205964;34;20108;-64
2022/04/27 04:00:50;;;;;;;16.52;3.87;;;;;;;;;;4205965;34;20545;-61
2022/04/27 04:03:16;;;;;;;11.65;3.28;;;;;;;;;;4205737;34;20098;-62
2022/04/27 04:05:42;;;;;;;10.98;3.67;;;;;;;;;;4205707;34;20220;-64
2022/04/27 04:08:08;;;;;;;16.67;3.92;;;;;;;;;;4205632;34;20535;-64
2022/04/27 04:10:34;;;;;;;12.75;4.87;;;;;;;;;;4205927;34;20130;-63
2022/04/27 04:13:01;;;;;;;16.80;5.28;;;;;;;;;;4205215;34;20526;-64
2022/04/27 04:15:27;;;;;;;16.75;5.15;;;;;;;;;;4205408;34;20094;-64
2022/04/27 04:17:54;;;;;;;18.92;4.03;;;;;;;;;;4205952;34;20105;-63
2022/04/27 04:20:20;;;;;;;19.73;4.50;;;;;;;;;;4205826;34;20098;-64
2022/04/27 04:22:47;;;;;;;18.33;4.03;;;;;;;;;;4205536;34;20112;-63
2022/04/27 04:30:43;;;;;;;9.05;3.45;;;;;;;;;;4205509;34;20117;-66
2022/04/27 04:33:09;;;;;;;13.68;4.05;;;;;;;;;;4215672;34;20654;-65
2022/04/27 04:35:36;;;;;;;8.00;1.98;;;;;;;;;;4205488;34;20261;-64
2022/04/27 04:38:04;;;;;;;6.80;3.50;;;;;;;;;;4205529;34;20125;-65
2022/04/27 04:40:30;;;;;;;16.17;4.93;;;;;;;;;;4215461;34;20597;-65
2022/04/27 04:42:56;;;;;;;11.93;4.70;;;;;;;;;;4192655;34;20117;-63
2022/04/27 04:45:25;;;;;;;8.35;3.95;;;;;;;;;;4181089;34;20082;-64
2022/04/27 04:47:52;;;;;;;14.98;4.10;;;;;;;;;;4192899;34;20121;-63
2022/04/27 04:50:18;;;;;;;13.10;4.32;;;;;;;;;;4205267;34;20205;-63
2022/04/27 04:52:46;;;;;;;7.70;3.95;;;;;;;;;;4204223;34;20125;-64
2022/04/27 04:55:12;;;;;;;12.18;4.30;;;;;;;;;;4215201;34;20098;-63
2022/04/27 04:57:39;;;;;;;11.52;3.75;;;;;;;;;;4205509;34;20193;-63
2022/04/27 05:00:05;;;;;;;14.23;4.25;;;;;;;;;;4205419;34;20124;-63
2022/04/27 05:02:32;;;;;;;21.12;4.70;;;;;;;;;;4215430;34;20129;-63
2022/04/27 05:04:58;;;;;;;18.42;4.72;;;;;;;;;;4205358;34;20120;-68
2022/04/27 05:07:24;;;;;;;13.20;4.47;;;;;;;;;;4192362;34;20109;-65
2022/04/27 05:09:51;;;;;;;11.77;4.20;;;;;;;;;;4205114;34;20525;-63
2022/04/27 05:12:17;;;;;;;19.62;5.07;;;;;;;;;;4215178;34;20113;-62
2022/04/27 05:14:43;;;;;;;8.23;4.00;;;;;;;;;;4205141;34;20131;-62
2022/04/27 05:17:09;;;;;;;23.40;5.32;;;;;;;;;;4205113;34;20094;-63
2022/04/27 05:19:35;;;;;;;22.45;5.93;;;;;;;;;;4215359;34;20192;-62
2022/04/27 05:22:01;;;;;;;9.82;4.72;;;;;;;;;;4205016;34;20104;-63
2022/04/27 05:24:27;;;;;;;13.27;4.30;;;;;;;;;;4215264;34;20110;-61
2022/04/27 05:26:53;;;;;;;15.98;4.80;;;;;;;;;;4205653;34;20092;-62
2022/04/27 05:32:05;;;;;;;16.20;5.03;;;;;;;;;;4205211;34;20121;-62
2022/04/27 05:34:33;;;;;;;21.02;4.75;;;;;;;;;;4204799;34;20101;-62
2022/04/27 05:37:00;;;;;;;18.55;6.20;;;;;;;;;;4205027;34;20116;-63
2022/04/27 05:39:26;;;;;;;13.48;4.50;;;;;;;;;;4215025;33;20193;-65
2022/04/27 05:41:53;;;;;;;7.72;4.05;;;;;;;;;;4192081;34;20102;-63
2022/04/27 05:44:23;;;;;;;27.13;6.25;;;;;;;;;;4203469;34;20098;-61
2022/04/27 05:46:53;;;;;;;9.52;5.30;;;;;;;;;;4202544;34;20124;-63
2022/04/27 05:49:19;;;;;;;20.48;5.75;;;;;;;;;;4204684;34;20108;-64
2022/04/27 05:51:46;;;;;;;17.52;5.25;;;;;;;;;;4204580;34;20431;-63
2022/04/27 05:54:14;;;;;;;12.90;4.53;;;;;;;;;;4214842;34;20518;-62
2022/04/27 05:56:43;;;;;;;21.40;5.32;;;;;;;;;;4204747;34;20100;-63
2022/04/27 05:59:10;;;;;;;16.77;4.72;;;;;;;;;;4214758;34;20141;-63
2022/04/27 06:01:36;;;;;;;10.73;5.65;;;;;;;;;;4214916;34;20090;-62
2022/04/27 06:04:03;;;;;;;11.68;4.07;;;;;;;;;;4215204;34;20140;-62
2022/04/27 06:06:29;;;;;;;18.85;5.18;;;;;;;;;;4204788;34;20125;-63
2022/04/27 06:08:55;;;;;;;14.65;4.87;;;;;;;;;;4191922;34;20149;-64
2022/04/27 06:11:21;;;;;;;10.77;4.75;;;;;;;;;;4215104;34;20125;-62
2022/04/27 06:13:47;;;;;;;16.62;6.03;;;;;;;;;;4215220;34;20101;-63
2022/04/27 06:16:14;;;;;;;11.95;4.70;;;;;;;;;;4204616;34;20879;-62
2022/04/27 06:18:41;;;;;;;13.25;5.37;;;;;;;;;;4204758;34;20462;-64
2022/04/27 06:21:08;;;;;;;15.68;4.53;;;;;;;;;;4192007;34;20220;-64
2022/04/27 06:23:34;;;;;;;13.95;5.20;;;;;;;;;;4204769;34;20109;-68
2022/04/27 06:26:00;;;;;;;12.43;4.87;;;;;;;;;;4214839;34;20224;-62
2022/04/27 06:28:26;;;;;;;10.90;5.10;;;;;;;;;;4204944;34;20214;-62
2022/04/27 06:30:52;;;;;;;16.00;7.45;;;;;;;;;;4204446;34;20114;-62
2022/04/27 06:33:19;;;;;;;24.65;8.48;;;;;;;;;;4204539;34;20197;-60
2022/04/27 06:35:46;;;;;;;28.25;7.37;;;;;;;;;;4204404;34;20117;-61
2022/04/27 06:38:12;;;;;;;12.13;5.28;;;;;;;;;;4204480;34;20510;-62
2022/04/27 06:40:38;;;;;;;12.02;4.03;;;;;;;;;;4214430;34;20101;-61
2022/04/27 06:43:04;;;;;;;18.40;5.80;;;;;;;;;;4214815;34;20621;-60
2022/04/27 06:45:31;;;;;;;9.77;4.72;;;;;;;;;;4204657;34;20221;-58
2022/04/27 06:47:58;;;;;;;13.80;4.28;;;;;;;;;;4203232;34;20090;-61
2022/04/27 06:50:25;;;;;;;16.85;6.00;;;;;;;;;;4204324;34;20133;-59
2022/04/27 06:52:52;;;;;;;10.65;4.95;;;;;;;;;;4204337;34;20132;-60
2022/04/27 06:55:18;;;;;;;9.48;4.55;;;;;;;;;;4204231;34;20113;-61
2022/04/27 06:57:44;;;;;;;11.50;5.00;;;;;;;;;;4204150;34;20493;-60
2022/04/27 07:00:12;;;;;;;13.25;4.65;;;;;;;;;;4204199;34;20122;-58
2022/04/27 07:02:39;;;;;;;12.95;4.62;;;;;;;;;;4204041;34;20446;-59
2022/04/27 07:05:06;;;;;;;15.43;5.60;;;;;;;;;;4204215;34;20648;-61
2022/04/27 07:07:32;;;;;;;10.85;5.00;;;;;;;;;;4202940;34;20105;-58
2022/04/27 07:09:59;;;;;;;9.98;4.85;;;;;;;;;;4204337;34;20113;-59
2022/04/27 07:12:25;;;;;;;7.68;4.40;;;;;;;;;;4204227;34;20181;-58
2022/04/27 07:14:51;;;;;;;17.73;5.10;;;;;;;;;;4204002;34;20101;-58
2022/04/27 07:17:18;;;;;;;13.20;5.43;;;;;;;;;;4203965;34;20105;-58
2022/04/27 07:19:44;;;;;;;18.35;5.60;;;;;;;;;;4203812;34;20113;-58
2022/04/27 07:22:11;;;;;;;9.02;5.10;;;;;;;;;;4203997;34;20113;-58
2022/04/27 07:24:37;;;;;;;13.60;5.20;;;;;;;;;;4204226;34;20113;-59
2022/04/27 07:27:04;;;;;;;18.58;5.53;;;;;;;;;;4203853;34;20102;-58
2022/04/27 07:29:30;;;;;;;14.90;6.18;;;;;;;;;;4191177;34;20684;-59
2022/04/27 07:31:56;;;;;;;14.38;6.03;;;;;;;;;;4204055;34;20104;-58
2022/04/27 07:34:22;;;;;;;15.27;5.55;;;;;;;;;;4203804;34;20101;-59
2022/04/27 07:36:48;;;;;;;14.57;5.43;;;;;;;;;;4203739;34;20177;-61
2022/04/27 07:39:14;;;;;;;15.30;7.15;;;;;;;;;;4204060;34;20229;-61
2022/04/27 07:41:40;;;;;;;12.23;4.70;;;;;;;;;;4204061;34;20097;-59
2022/04/27 07:44:06;;;;;;;14.75;5.20;;;;;;;;;;4203891;34;20101;-60
2022/04/27 07:46:33;;;;;;;12.25;5.82;;;;;;;;;;4203681;34;20506;-59
2022/04/27 07:48:59;;;;;;;18.98;6.62;;;;;;;;;;4203697;34;20136;-60
2022/04/27 07:51:25;;;;;;;9.35;5.12;;;;;;;;;;4204026;34;20101;-59
2022/04/27 07:53:51;;;;;;;15.32;6.22;;;;;;;;;;4203988;34;20540;-62
2022/04/27 07:56:17;;;;;;;12.55;5.40;;;;;;;;;;4213753;34;20122;-61
2022/04/27 07:58:43;;;;;;;13.02;6.05;;;;;;;;;;4204691;34;20124;-61
2022/04/27 08:01:09;;;;;;;10.57;5.22;;;;;;;;;;4205730;34;20105;-62
2022/04/27 08:03:35;;;;;;;16.92;6.25;;;;;;;;;;4205954;34;20506;-64
2022/04/27 08:06:03;;;;;;;11.30;5.43;;;;;;;;;;4205832;34;20506;-59
2022/04/27 08:08:29;;;;;;;8.85;4.07;;;;;;;;;;4205719;34;20128;-61
2022/04/27 08:10:56;;;;;;;10.25;4.07;;;;;;;;;;4205719;34;20113;-61
2022/04/27 08:13:22;;;;;;;15.95;4.18;;;;;;;;;;4205919;34;20124;-61
2022/04/27 08:15:48;;;;;;;12.35;5.05;;;;;;;;;;4205665;34;20621;-60
2022/04/27 08:18:14;;;;;;;13.18;4.95;;;;;;;;;;4205815;34;20140;-61
2022/04/27 08:23:29;;;;;;;6.70;3.08;;;;;;;;;;4205605;34;20120;-61
2022/04/27 08:25:57;;;;;;;10.23;5.12;;;;;;;;;;4205555;34;20101;-59
2022/04/27 08:28:24;;;;;;;13.38;4.00;;;;;;;;;;4205707;34;20189;-60
2022/04/27 08:30:50;;;;;;;7.90;3.58;;;;;;;;;;4205466;34;20090;-60
2022/04/27 08:33:18;;;;;;;12.23;4.30;;;;;;;;;;4205456;34;20101;-59
2022/04/27 08:35:45;;;;;;;9.65;4.50;;;;;;;;;;4205428;34;20121;-59
2022/04/27 08:38:11;;;;;;;10.45;3.42;;;;;;;;;;4205425;34;20110;-59
2022/04/27 08:40:42;;;;;;;9.73;3.95;;;;;;;;;;4205509;34;20117;-59
2022/04/27 08:43:09;;;;;;;9.00;4.45;;;;;;;;;;4205394;34;20114;-59
2022/04/27 08:45:36;;;;;;;9.73;4.28;;;;;;;;;;4215639;34;20116;-59
2022/04/27 08:48:03;;;;;;;11.30;3.90;;;;;;;;;;4205406;34;20100;-59
2022/04/27 08:50:30;;;;;;;8.10;3.30;;;;;;;;;;4205427;34;20560;-59
2022/04/27 08:52:56;;;;;;;9.43;3.40;;;;;;;;;;4205295;34;20136;-60
2022/04/27 08:55:23;;;;;;;13.85;4.32;;;;;;;;;;4205403;34;20526;-59
2022/04/27 08:57:49;;;;;;;8.30;3.67;;;;;;;;;;4205534;34;20124;-59
2022/04/27 09:00:17;;;;;;;15.52;4.82;;;;;;;;;;4205400;34;20112;-60
2022/04/27 09:02:43;;;;;;;13.38;5.20;;;;;;;;;;4205279;34;20109;-60
2022/04/27 09:05:17;;;;;;;16.98;5.05;;;;;;;;;;4205392;34;20114;-60
2022/04/27 09:07:45;;;;;;;11.30;3.55;;;;;;;;;;4205232;34;20607;-63
2022/04/27 09:10:15;;;;;;;13.13;4.22;;;;;;;;;;4204830;34;20114;-60
2022/04/27 09:12:55;;;;;;;12.70;5.53;;;;;;;;;;4192194;34;20118;-60
2022/04/27 09:15:23;;;;;;;9.18;4.12;;;;;;;;;;4205463;34;20113;-60
2022/04/27 09:23:37;;;;;;;12.30;3.50;;;;;;;;;;4188764;34;20593;-62
2022/04/27 09:26:28;;;;;;;9.98;4.20;;;;;;;;;;4205095;34;20181;-60
2022/04/27 09:28:54;;;;;;;16.40;5.87;;;;;;;;;;4205228;34;20206;-60
2022/04/27 09:31:27;;;;;;;11.45;3.42;;;;;;;;;;4204911;34;20105;-60
2022/04/27 09:33:58;;;;;;;11.18;3.22;;;;;;;;;;4205053;34;20109;-60
2022/04/27 09:36:25;;;;;;;6.78;3.30;;;;;;;;;;4205020;34;20262;-60
2022/04/27 09:38:53;;;;;;;13.27;3.70;;;;;;;;;;4204910;34;20229;-60
2022/04/27 09:41:45;;;;;;;7.18;3.58;;;;;;;;;;4204952;34;20086;-62
2022/04/27 09:44:34;;;;;;;7.30;3.83;;;;;;;;;;4205141;34;20152;-60
2022/04/27 09:47:04;;;;;;;10.05;3.97;;;;;;;;;;4204839;34;20100;-60
2022/04/27 09:49:36;;;;;;;13.25;4.03;;;;;;;;;;4205003;34;20526;-60
2022/04/27 09:52:07;;;;;;;9.00;4.37;;;;;;;;;;4204845;34;20521;-59
2022/04/27 09:54:42;;;;;;;12.60;4.85;;;;;;;;;;4192712;34;20108;-60
2022/04/27 09:57:09;;;;;;;10.60;3.55;;;;;;;;;;4204812;34;20541;-60
2022/04/27 09:59:36;;;;;;;12.25;3.70;;;;;;;;;;4212775;33;20090;-61
2022/04/27 10:02:07;;;;;;;10.48;4.55;;;;;;;;;;4204336;34;20101;-62
2022/04/27 10:04:34;;;;;;;14.30;3.97;;;;;;;;;;4214910;34;20101;-60
2022/04/27 10:07:04;;;;;;;14.38;3.92;;;;;;;;;;4218437;34;20621;-60
2022/04/27 10:09:31;;;;;;;16.50;4.70;;;;;;;;;;4218340;34;20113;-63
2022/04/27 10:11:58;;;;;;;8.73;3.85;;;;;;;;;;4218475;34;20104;-63
2022/04/27 10:14:28;;;;;;;3.67;3.03;;;;;;;;;;4218177;33;20518;-63
2022/04/27 10:16:54;;;;;;;14.27;5.00;;;;;;;;;;4218150;34;20109;-62
2022/04/27 10:19:21;;;;;;;11.45;3.62;;;;;;;;;;4217765;33;20451;-63
2022/04/27 10:21:58;;;;;;;8.90;3.55;;;;;;;;;;4218284;34;20112;-60
2022/04/27 10:24:41;;;;;;;8.75;4.22;;;;;;;;;;4210655;33;20117;-60
2022/04/27 10:27:24;;;;;;;16.02;3.35;;;;;;;;;;4204318;34;20197;-60
2022/04/27 10:30:00;;;;;;;2.92;2.30;;;;;;;;;;4207736;34;20133;-60
2022/04/27 10:32:42;;;;;;;8.35;3.53;;;;;;;;;;4213119;33;20090;-60
2022/04/27 10:35:25;;;;;;;16.55;4.72;;;;;;;;;;4211626;34;20109;-60
2022/04/27 10:37:59;;;;;;;17.52;5.40;;;;;;;;;;4218034;33;20129;-59
2022/04/27 10:40:38;;;;;;;7.70;2.97;;;;;;;;;;4215872;34;20114;-60
2022/04/27 10:43:08;;;;;;;9.88;3.70;;;;;;;;;;4218225;33;20117;-60
2022/04/27 10:45:35;;;;;;;8.77;3.45;;;;;;;;;;4218328;34;20433;-61
2022/04/27 10:48:03;;;;;;;10.10;3.72;;;;;;;;;;4206552;34;20121;-63
2022/04/27 10:50:31;;;;;;;5.95;2.17;;;;;;;;;;4204355;34;20113;-62
2022/04/27 10:53:19;;;;;;;8.50;2.42;;;;;;;;;;4202582;34;20569;-61
2022/04/27 10:55:48;;;;;;;5.00;2.65;;;;;;;;;;4203792;34;20423;-62
2022/04/27 10:58:30;;;;;;;5.85;3.10;;;;;;;;;;4204016;34;20113;-61
2022/04/27 11:01:01;;;;;;;9.38;2.80;;;;;;;;;;4203957;34;20209;-61
2022/04/27 11:03:38;;;;;;;2.37;1.48;;;;;;;;;;4204181;34;20607;-61
2022/04/27 11:06:12;;;;;;;3.97;2.15;;;;;;;;;;4204104;34;20097;-62
2022/04/27 11:09:08;;;;;;;3.20;2.00;;;;;;;;;;4204323;34;20106;-61
2022/04/27 11:11:59;;;;;;;12.13;6.18;;;;;;;;;;4204192;34;20102;-61
2022/04/27 11:14:34;;;;;;;5.35;3.28;;;;;;;;;;4204086;34;20117;-61
2022/04/27 11:17:00;;;;;;;7.93;2.92;;;;;;;;;;4204004;34;20100;-61
2022/04/27 11:19:34;;;;;;;5.00;3.12;;;;;;;;;;4204075;34;20519;-61
2022/04/27 11:22:13;;;;;;;11.93;3.42;;;;;;;;;;4203943;34;20091;-60
2022/04/27 11:24:39;;;;;;;6.20;2.97;;;;;;;;;;4204013;34;20500;-61
2022/04/27 11:27:06;;;;;;;7.50;3.83;;;;;;;;;;4203981;34;20105;-60
2022/04/27 11:29:33;;;;;;;7.82;3.25;;;;;;;;;;4203959;34;20529;-62
2022/04/27 11:32:05;;;;;;;9.35;3.87;;;;;;;;;;4191321;34;20136;-61
2022/04/27 11:34:33;;;;;;;10.05;3.22;;;;;;;;;;4205780;34;20120;-61
2022/04/27 11:37:13;;;;;;;4.50;2.65;;;;;;;;;;4205822;34;20561;-60
2022/04/27 11:39:39;;;;;;;2.90;2.08;;;;;;;;;;4205050;34;20116;-60
2022/04/27 11:42:05;;;;;;;2.85;2.37;;;;;;;;;;4216263;34;20137;-61
2022/04/27 11:44:31;;;;;;;4.97;3.03;;;;;;;;;;4206047;34;20212;-61
2022/04/27 11:46:57;;;;;;;4.25;2.17;;;;;;;;;;4206002;34;20173;-64
2022/04/27 11:49:24;;;;;;;4.75;2.95;;;;;;;;;;4192951;34;20118;-61
2022/04/27 11:51:50;;;;;;;9.48;5.55;;;;;;;;;;4205791;34;20188;-61
2022/04/27 11:54:32;;;;;;;7.22;2.00;;;;;;;;;;4205749;34;20175;-62
2022/04/27 11:57:00;;;;;;;3.95;2.03;;;;;;;;;;4205803;34;20113;-62
2022/04/27 11:59:42;;;;;;;7.57;2.87;;;;;;;;;;4205834;34;20127;-62
2022/04/27 12:02:11;;;;;;;6.40;1.80;;;;;;;;;;4205842;34;20137;-61
2022/04/27 12:04:38;;;;;;;2.15;1.65;;;;;;;;;;4205911;34;20113;-60
2022/04/27 12:07:14;;;;;;;1.70;1.60;;;;;;;;;;4205888;34;20141;-62
2022/04/27 12:09:40;;;;;;;2.97;1.90;;;;;;;;;;4205724;34;20458;-61
2022/04/27 12:12:13;;;;;;;4.10;2.22;;;;;;;;;;4205665;34;20197;-61
2022/04/27 12:14:39;;;;;;;3.35;1.52;;;;;;;;;;4205791;34;20140;-62
2022/04/27 12:17:08;;;;;;;1.65;1.30;;;;;;;;;;4204205;34;20213;-63
2022/04/27 12:19:36;;;;;;;1.73;1.60;;;;;;;;;;4205688;34;20193;-61
2022/04/27 12:22:15;;;;;;;3.35;2.55;;;;;;;;;;4205611;34;20121;-61
2022/04/27 12:24:45;;;;;;;1.27;1.23;;;;;;;;;;4205581;34;20093;-62
2022/04/27 12:27:20;;;;;;;2.53;2.33;;;;;;;;;;4205563;34;20113;-64
2022/04/27 12:29:47;;;;;;;2.03;1.27;;;;;;;;;;4205607;34;20114;-64
2022/04/27 12:32:13;;;;;;;4.22;2.05;;;;;;;;;;4202544;34;20130;-63
2022/04/27 12:37:30;;;;;;;1.00;1.00;;;;;;;;;;4187369;34;20102;-62
2022/04/27 12:39:57;;;;;;;2.62;1.62;;;;;;;;;;4191677;34;20193;-63
2022/04/27 12:42:24;;;;;;;8.40;1.20;;;;;;;;;;4201700;34;20114;-62
2022/04/27 12:44:50;;;;;;;1.10;1.10;;;;;;;;;;4190635;34;20117;-62
2022/04/27 12:47:16;;;;;;;1.83;1.50;;;;;;;;;;4198619;34;20105;-62
2022/04/27 12:49:44;;;;;;;1.77;1.67;;;;;;;;;;4205409;34;20097;-62
2022/04/27 12:52:21;;;;;;;27.45;3.30;;;;;;;;;;4181098;34;20098;-63
2022/04/27 12:54:50;;;;;;;1.73;1.62;;;;;;;;;;4215444;34;20124;-64
2022/04/27 12:57:16;;;;;;;15.90;6.72;;;;;;;;;;4205280;34;20108;-61
2022/04/27 12:59:59;;;;;;;6.43;3.80;;;;;;;;;;4215636;34;20134;-61
2022/04/27 13:02:27;;;;;;;5.65;3.25;;;;;;;;;;4205276;34;20178;-62
2022/04/27 13:04:53;;;;;;;6.50;2.80;;;;;;;;;;4205232;34;20196;-60
2022/04/27 13:07:19;;;;;;;9.98;2.85;;;;;;;;;;4205224;34;20109;-61
2022/04/27 13:12:31;;;;;;;8.63;2.70;;;;;;;;;;4202224;34;20133;-61
2022/04/27 13:14:58;;;;;;;9.38;3.12;;;;;;;;;;4205003;34;20113;-62
2022/04/27 13:17:24;;;;;;;6.75;2.17;;;;;;;;;;4205041;34;20094;-63
2022/04/27 13:19:50;;;;;;;10.55;4.22;;;;;;;;;;4215275;34;20112;-62
2022/04/27 13:22:16;;;;;;;7.47;3.40;;;;;;;;;;4203739;34;20530;-62
2022/04/27 13:24:42;;;;;;;15.10;3.33;;;;;;;;;;4205046;34;20525;-62
2022/04/27 13:27:08;;;;;;;12.57;3.78;;;;;;;;;;4203141;33;20124;-62
2022/04/27 13:29:34;;;;;;;8.90;2.97;;;;;;;;;;4218738;34;20220;-62
2022/04/27 13:32:00;;;;;;;7.20;2.03;;;;;;;;;;4194205;34;20105;-63
2022/04/27 13:34:26;;;;;;;4.75;2.42;;;;;;;;;;4205973;34;20112;-62
2022/04/27 13:36:52;;;;;;;11.43;3.42;;;;;;;;;;4205922;34;20635;-62
2022/04/27 13:39:18;;;;;;;10.43;3.22;;;;;;;;;;4218834;33;20184;-62
2022/04/27 13:41:44;;;;;;;12.88;2.85;;;;;;;;;;4218792;34;20543;-63
2022/04/27 13:44:13;;;;;;;8.20;2.15;;;;;;;;;;4218683;33;20102;-62
2022/04/27 13:46:39;;;;;;;6.45;1.65;;;;;;;;;;4212424;34;20241;-62
2022/04/27 13:49:05;;;;;;;8.73;2.80;;;;;;;;;;4204712;34;20112;-62
2022/04/27 13:51:32;;;;;;;14.43;3.42;;;;;;;;;;4208625;34;20119;-62
2022/04/27 13:53:59;;;;;;;19.83;5.78;;;;;;;;;;4218443;33;20504;-62
2022/04/27 13:56:26;;;;;;;8.57;2.45;;;;;;;;;;4217893;34;20111;-62
2022/04/27 13:58:52;;;;;;;10.40;2.87;;;;;;;;;;4205927;34;20217;-62
2022/04/27 14:01:18;;;;;;;6.03;2.47;;;;;;;;;;4218290;34;20461;-62
2022/04/27 14:03:46;;;;;;;7.47;2.58;;;;;;;;;;4205931;34;20117;-62
2022/04/27 14:06:14;;;;;;;7.40;3.28;;;;;;;;;;4217963;34;20117;-62
2022/04/27 14:08:40;;;;;;;9.98;2.70;;;;;;;;;;4218684;33;20129;-62
2022/04/27 14:11:06;;;;;;;5.97;2.08;;;;;;;;;;4218183;34;20364;-63
2022/04/27 14:13:32;;;;;;;9.40;4.60;;;;;;;;;;4205855;34;20098;-62
2022/04/27 14:18:42;;;;;;;1.35;1.17;;;;;;;;;;4218919;33;20116;-62
2022/04/27 14:21:08;;;;;;;2.15;1.23;;;;;;;;;;4218381;34;20220;-62
2022/04/27 14:23:34;;;;;;;6.93;2.30;;;;;;;;;;4218449;33;20112;-61
2022/04/27 14:26:00;;;;;;;1.37;1.27;;;;;;;;;;4218426;34;20106;-61
2022/04/27 14:28:27;;;;;;;1.40;1.30;;;;;;;;;;4216400;33;20119;-62
2022/04/27 14:30:53;;;;;;;2.05;1.67;;;;;;;;;;4204507;34;20117;-61
2022/04/27 14:33:20;;;;;;;7.78;1.80;;;;;;;;;;4204238;34;20137;-60
2022/04/27 14:35:46;;;;;;;10.10;2.70;;;;;;;;;;4204747;34;20106;-60
2022/04/27 14:38:13;;;;;;;7.55;3.20;;;;;;;;;;4204406;34;20118;-62
2022/04/27 14:40:39;;;;;;;2.87;1.98;;;;;;;;;;4204492;34;20431;-62
2022/04/27 14:43:07;;;;;;;1.20;1.10;;;;;;;;;;4204577;34;20098;-62
2022/04/27 14:45:35;;;;;;;12.98;3.90;;;;;;;;;;4204292;34;20122;-62
2022/04/27 14:48:02;;;;;;;12.37;2.50;;;;;;;;;;4204313;34;20112;-62
2022/04/27 14:50:28;;;;;;;2.37;1.83;;;;;;;;;;4204300;34;20200;-62
2022/04/27 14:52:55;;;;;;;2.50;1.60;;;;;;;;;;4204548;34;20525;-62
2022/04/27 14:55:23;;;;;;;1.20;1.20;;;;;;;;;;4204202;34;20450;-62
2022/04/27 14:57:49;;;;;;;2.22;2.00;;;;;;;;;;4204203;34;20689;-61
2022/04/27 15:00:16;;;;;;;2.35;2.15;;;;;;;;;;4202337;34;20114;-60
2022/04/27 15:02:43;;;;;;;2.60;1.80;;;;;;;;;;4204042;34;20129;-60
2022/04/27 15:05:09;;;;;;;2.83;1.60;;;;;;;;;;4207905;34;20192;-60
2022/04/27 15:07:35;;;;;;;5.43;1.95;;;;;;;;;;4216958;33;20462;-61
2022/04/27 15:10:01;;;;;;;5.55;3.10;;;;;;;;;;4217417;34;20208;-60
2022/04/27 15:12:27;;;;;;;12.75;3.03;;;;;;;;;;4217922;33;20117;-60
2022/04/27 15:14:53;;;;;;;12.00;2.95;;;;;;;;;;4217754;34;20106;-61
2022/04/27 15:17:19;;;;;;;13.30;2.87;;;;;;;;;;4218020;33;20982;-61
2022/04/27 15:22:41;;;;;;;24.58;7.40;;;;;;;;;;4217846;34;20129;-62
2022/04/27 15:22:46;;;;;;;14.90;6.07;;;;;;;;;;4218009;33;20122;-61
2022/04/27 15:25:13;;;;;;;16.12;3.78;;;;;;;;;;4217887;34;20128;-61
2022/04/27 15:27:43;;;;;;;9.15;3.70;;;;;;;;;;4217854;33;20124;-61
2022/04/27 15:30:09;;;;;;;8.60;3.60;;;;;;;;;;4217697;34;20445;-62
2022/04/27 15:32:36;;;;;;;7.70;2.60;;;;;;;;;;4217725;33;20497;-63
2022/04/27 15:35:02;;;;;;;3.47;2.30;;;;;;;;;;4217671;34;20835;-63
2022/04/27 15:37:28;;;;;;;3.35;2.35;;;;;;;;;;4218017;33;20148;-64
2022/04/27 15:39:54;;;;;;;6.03;2.62;;;;;;;;;;4217898;34;20150;-64
2022/04/27 15:42:21;;;;;;;8.18;2.58;;;;;;;;;;4204893;33;20126;-64